Terminal Aerodrome Forecast
Issued by NWS Louisville, KY

Home | Current Version | Previous Version | Text Only | Print | Product List | Glossary On
Versions: 1 2 3 4 5 6 7 8 9 10 11 12 13 14 15 16 17 18
967
FTUS43 KLMK 141723
TAFBWG
TAF
KBWG 141723Z 1418/1518 14007KT 2SM -SN BKN015
      TEMPO 1418/1422 1/2SM TSSN BKN005 OVC025CB
     FM150000 18010KT 3SM -SN BKN007
     FM150800 18007KT 4SM -SHRA BR BKN007
     FM151200 17006KT 6SM BR BKN007 OVC015=

USA.gov is the U.S. government's official web portal to all federal, state and local government web resources and services.